sensor_id;sensor_type;location;lat;lon;timestamp;P1;durP1;ratioP1;P2;durP2;ratioP2
3845;SDS011;1938;50.812;7.738;2023-06-22T00:00:54;20.80;;;11.90;;
3845;SDS011;1938;50.812;7.738;2023-06-22T00:03:21;15.30;;;11.57;;
3845;SDS011;1938;50.812;7.738;2023-06-22T00:05:48;17.43;;;11.10;;
3845;SDS011;1938;50.812;7.738;2023-06-22T00:08:14;15.37;;;11.53;;
3845;SDS011;1938;50.812;7.738;2023-06-22T00:10:41;19.03;;;11.43;;
3845;SDS011;1938;50.812;7.738;2023-06-22T00:13:08;21.77;;;12.17;;
3845;SDS011;1938;50.812;7.738;2023-06-22T00:15:34;22.10;;;12.00;;
3845;SDS011;1938;50.812;7.738;2023-06-22T00:18:00;19.87;;;11.00;;
3845;SDS011;1938;50.812;7.738;2023-06-22T00:20:27;20.60;;;11.10;;
3845;SDS011;1938;50.812;7.738;2023-06-22T00:22:53;18.90;;;11.00;;
3845;SDS011;1938;50.812;7.738;2023-06-22T00:25:20;18.37;;;11.93;;
3845;SDS011;1938;50.812;7.738;2023-06-22T00:27:46;17.77;;;11.03;;
3845;SDS011;1938;50.812;7.738;2023-06-22T00:30:12;18.00;;;11.30;;
3845;SDS011;1938;50.812;7.738;2023-06-22T00:32:38;28.03;;;11.70;;
3845;SDS011;1938;50.812;7.738;2023-06-22T00:35:03;16.30;;;11.57;;
3845;SDS011;1938;50.812;7.738;2023-06-22T00:37:29;16.30;;;12.27;;
3845;SDS011;1938;50.812;7.738;2023-06-22T00:39:58;20.93;;;12.13;;
3845;SDS011;1938;50.812;7.738;2023-06-22T00:42:23;15.43;;;11.03;;
3845;SDS011;1938;50.812;7.738;2023-06-22T00:44:49;19.10;;;10.20;;
3845;SDS011;1938;50.812;7.738;2023-06-22T00:47:15;14.67;;;10.27;;
3845;SDS011;1938;50.812;7.738;2023-06-22T00:49:43;14.17;;;9.70;;
3845;SDS011;1938;50.812;7.738;2023-06-22T00:52:09;15.13;;;9.67;;
3845;SDS011;1938;50.812;7.738;2023-06-22T00:54:38;14.53;;;10.43;;
3845;SDS011;1938;50.812;7.738;2023-06-22T00:57:10;15.43;;;9.37;;
3845;SDS011;1938;50.812;7.738;2023-06-22T00:59:40;17.80;;;9.80;;
3845;SDS011;1938;50.812;7.738;2023-06-22T01:02:07;13.93;;;10.53;;
3845;SDS011;1938;50.812;7.738;2023-06-22T01:04:34;21.23;;;10.30;;
3845;SDS011;1938;50.812;7.738;2023-06-22T01:07:09;19.20;;;9.70;;
3845;SDS011;1938;50.812;7.738;2023-06-22T01:12:24;18.63;;;11.83;;
3845;SDS011;1938;50.812;7.738;2023-06-22T01:14:55;19.53;;;11.70;;
3845;SDS011;1938;50.812;7.738;2023-06-22T01:17:28;23.00;;;10.97;;
3845;SDS011;1938;50.812;7.738;2023-06-22T01:19:55;19.90;;;11.50;;
3845;SDS011;1938;50.812;7.738;2023-06-22T01:22:24;15.87;;;11.10;;
3845;SDS011;1938;50.812;7.738;2023-06-22T01:25:07;16.13;;;11.30;;
3845;SDS011;1938;50.812;7.738;2023-06-22T01:30:39;14.50;;;10.80;;
3845;SDS011;1938;50.812;7.738;2023-06-22T01:33:06;19.30;;;11.60;;
3845;SDS011;1938;50.812;7.738;2023-06-22T01:35:32;16.97;;;12.23;;
3845;SDS011;1938;50.812;7.738;2023-06-22T01:37:58;17.10;;;11.77;;
3845;SDS011;1938;50.812;7.738;2023-06-22T01:40:24;17.23;;;11.50;;
3845;SDS011;1938;50.812;7.738;2023-06-22T01:42:51;15.70;;;11.23;;
3845;SDS011;1938;50.812;7.738;2023-06-22T01:45:17;17.73;;;11.43;;
3845;SDS011;1938;50.812;7.738;2023-06-22T01:47:43;19.37;;;12.03;;
3845;SDS011;1938;50.812;7.738;2023-06-22T01:50:09;17.10;;;12.33;;
3845;SDS011;1938;50.812;7.738;2023-06-22T01:52:35;21.80;;;11.33;;
3845;SDS011;1938;50.812;7.738;2023-06-22T01:55:01;15.13;;;11.53;;
3845;SDS011;1938;50.812;7.738;2023-06-22T01:57:27;16.47;;;11.67;;
3845;SDS011;1938;50.812;7.738;2023-06-22T02:02:24;19.60;;;12.67;;
3845;SDS011;1938;50.812;7.738;2023-06-22T02:04:56;15.70;;;10.87;;
3845;SDS011;1938;50.812;7.738;2023-06-22T02:07:27;18.67;;;11.87;;
3845;SDS011;1938;50.812;7.738;2023-06-22T02:09:58;20.73;;;11.50;;
3845;SDS011;1938;50.812;7.738;2023-06-22T02:12:25;18.43;;;12.27;;
3845;SDS011;1938;50.812;7.738;2023-06-22T02:14:53;18.30;;;11.23;;
3845;SDS011;1938;50.812;7.738;2023-06-22T02:17:19;17.30;;;12.10;;
3845;SDS011;1938;50.812;7.738;2023-06-22T02:19:45;19.13;;;12.60;;
3845;SDS011;1938;50.812;7.738;2023-06-22T02:22:10;19.07;;;11.20;;
3845;SDS011;1938;50.812;7.738;2023-06-22T02:24:38;16.73;;;11.07;;
3845;SDS011;1938;50.812;7.738;2023-06-22T02:27:04;17.70;;;11.80;;
3845;SDS011;1938;50.812;7.738;2023-06-22T02:29:32;19.53;;;12.80;;
3845;SDS011;1938;50.812;7.738;2023-06-22T02:31:57;19.10;;;13.43;;
3845;SDS011;1938;50.812;7.738;2023-06-22T02:34:23;23.63;;;15.07;;
3845;SDS011;1938;50.812;7.738;2023-06-22T02:36:49;20.20;;;13.97;;
3845;SDS011;1938;50.812;7.738;2023-06-22T02:39:21;22.87;;;15.50;;
3845;SDS011;1938;50.812;7.738;2023-06-22T02:41:49;27.30;;;15.17;;
3845;SDS011;1938;50.812;7.738;2023-06-22T02:44:15;32.13;;;16.33;;
3845;SDS011;1938;50.812;7.738;2023-06-22T02:46:41;23.63;;;15.37;;
3845;SDS011;1938;50.812;7.738;2023-06-22T02:49:06;21.70;;;17.37;;
3845;SDS011;1938;50.812;7.738;2023-06-22T02:51:33;21.37;;;16.10;;
3845;SDS011;1938;50.812;7.738;2023-06-22T02:53:59;21.43;;;16.57;;
3845;SDS011;1938;50.812;7.738;2023-06-22T02:56:25;24.63;;;14.00;;
3845;SDS011;1938;50.812;7.738;2023-06-22T02:58:51;22.40;;;17.30;;
3845;SDS011;1938;50.812;7.738;2023-06-22T03:01:18;28.80;;;18.03;;
3845;SDS011;1938;50.812;7.738;2023-06-22T03:03:49;26.03;;;19.60;;
3845;SDS011;1938;50.812;7.738;2023-06-22T03:06:15;27.43;;;18.60;;
3845;SDS011;1938;50.812;7.738;2023-06-22T03:08:40;33.50;;;19.90;;
3845;SDS011;1938;50.812;7.738;2023-06-22T03:11:06;26.37;;;19.63;;
3845;SDS011;1938;50.812;7.738;2023-06-22T03:13:32;25.90;;;19.80;;
3845;SDS011;1938;50.812;7.738;2023-06-22T03:15:58;22.30;;;17.50;;
3845;SDS011;1938;50.812;7.738;2023-06-22T03:18:24;26.40;;;20.00;;
3845;SDS011;1938;50.812;7.738;2023-06-22T03:20:49;26.97;;;18.97;;
3845;SDS011;1938;50.812;7.738;2023-06-22T03:23:15;24.03;;;18.27;;
3845;SDS011;1938;50.812;7.738;2023-06-22T03:25:40;27.23;;;19.40;;
3845;SDS011;1938;50.812;7.738;2023-06-22T03:28:06;27.93;;;21.53;;
3845;SDS011;1938;50.812;7.738;2023-06-22T03:30:32;25.83;;;20.37;;
3845;SDS011;1938;50.812;7.738;2023-06-22T03:32:57;33.43;;;22.00;;
3845;SDS011;1938;50.812;7.738;2023-06-22T03:35:23;31.17;;;21.90;;
3845;SDS011;1938;50.812;7.738;2023-06-22T03:37:48;29.63;;;22.57;;
3845;SDS011;1938;50.812;7.738;2023-06-22T03:40:14;31.70;;;21.60;;
3845;SDS011;1938;50.812;7.738;2023-06-22T03:42:39;36.33;;;22.13;;
3845;SDS011;1938;50.812;7.738;2023-06-22T03:45:05;28.77;;;21.13;;
3845;SDS011;1938;50.812;7.738;2023-06-22T03:47:32;31.40;;;22.23;;
3845;SDS011;1938;50.812;7.738;2023-06-22T03:49:58;33.80;;;23.07;;
3845;SDS011;1938;50.812;7.738;2023-06-22T03:52:23;32.50;;;21.60;;
3845;SDS011;1938;50.812;7.738;2023-06-22T03:54:50;28.00;;;21.20;;
3845;SDS011;1938;50.812;7.738;2023-06-22T03:57:16;31.07;;;22.90;;
3845;SDS011;1938;50.812;7.738;2023-06-22T03:59:41;34.27;;;21.30;;
3845;SDS011;1938;50.812;7.738;2023-06-22T04:02:07;30.97;;;22.63;;
3845;SDS011;1938;50.812;7.738;2023-06-22T04:04:32;32.40;;;23.23;;
3845;SDS011;1938;50.812;7.738;2023-06-22T04:07:00;36.87;;;24.00;;
3845;SDS011;1938;50.812;7.738;2023-06-22T04:09:25;35.20;;;23.90;;
3845;SDS011;1938;50.812;7.738;2023-06-22T04:11:51;30.90;;;21.47;;
3845;SDS011;1938;50.812;7.738;2023-06-22T04:14:17;29.67;;;20.47;;
3845;SDS011;1938;50.812;7.738;2023-06-22T04:16:42;34.93;;;20.77;;
3845;SDS011;1938;50.812;7.738;2023-06-22T04:19:08;27.53;;;18.50;;
3845;SDS011;1938;50.812;7.738;2023-06-22T04:21:39;24.60;;;19.03;;
3845;SDS011;1938;50.812;7.738;2023-06-22T04:24:04;25.70;;;17.93;;
3845;SDS011;1938;50.812;7.738;2023-06-22T04:26:30;29.07;;;17.60;;
3845;SDS011;1938;50.812;7.738;2023-06-22T04:28:56;25.10;;;18.00;;
3845;SDS011;1938;50.812;7.738;2023-06-22T04:31:22;23.10;;;16.17;;
3845;SDS011;1938;50.812;7.738;2023-06-22T04:33:52;21.73;;;15.40;;
3845;SDS011;1938;50.812;7.738;2023-06-22T04:36:18;19.70;;;13.97;;
3845;SDS011;1938;50.812;7.738;2023-06-22T04:38:43;25.27;;;14.90;;
3845;SDS011;1938;50.812;7.738;2023-06-22T04:41:09;21.17;;;15.60;;
3845;SDS011;1938;50.812;7.738;2023-06-22T04:43:39;20.33;;;14.83;;
3845;SDS011;1938;50.812;7.738;2023-06-22T04:46:04;20.33;;;15.57;;
3845;SDS011;1938;50.812;7.738;2023-06-22T04:48:30;22.10;;;14.87;;
3845;SDS011;1938;50.812;7.738;2023-06-22T04:50:58;18.47;;;12.67;;
3845;SDS011;1938;50.812;7.738;2023-06-22T04:53:28;18.80;;;12.50;;
3845;SDS011;1938;50.812;7.738;2023-06-22T04:55:54;19.80;;;12.00;;
3845;SDS011;1938;50.812;7.738;2023-06-22T04:58:20;17.10;;;10.93;;
3845;SDS011;1938;50.812;7.738;2023-06-22T05:00:46;14.30;;;9.30;;
3845;SDS011;1938;50.812;7.738;2023-06-22T05:03:12;13.80;;;9.90;;
3845;SDS011;1938;50.812;7.738;2023-06-22T05:05:37;13.60;;;8.90;;
3845;SDS011;1938;50.812;7.738;2023-06-22T05:08:03;14.60;;;9.70;;
3845;SDS011;1938;50.812;7.738;2023-06-22T05:10:33;14.27;;;9.27;;
3845;SDS011;1938;50.812;7.738;2023-06-22T05:12:58;13.80;;;8.17;;
3845;SDS011;1938;50.812;7.738;2023-06-22T05:15:24;12.67;;;8.27;;
3845;SDS011;1938;50.812;7.738;2023-06-22T05:17:53;11.30;;;7.40;;
3845;SDS011;1938;50.812;7.738;2023-06-22T05:20:18;11.00;;;7.10;;
3845;SDS011;1938;50.812;7.738;2023-06-22T05:22:44;12.60;;;7.10;;
3845;SDS011;1938;50.812;7.738;2023-06-22T05:25:10;10.03;;;7.00;;
3845;SDS011;1938;50.812;7.738;2023-06-22T05:27:36;10.83;;;6.20;;
3845;SDS011;1938;50.812;7.738;2023-06-22T05:30:08;9.13;;;5.80;;
3845;SDS011;1938;50.812;7.738;2023-06-22T05:32:34;9.90;;;6.27;;
3845;SDS011;1938;50.812;7.738;2023-06-22T05:35:02;10.93;;;6.60;;
3845;SDS011;1938;50.812;7.738;2023-06-22T05:37:28;8.17;;;5.97;;
3845;SDS011;1938;50.812;7.738;2023-06-22T05:39:55;10.90;;;6.17;;
3845;SDS011;1938;50.812;7.738;2023-06-22T05:42:22;10.77;;;5.80;;
3845;SDS011;1938;50.812;7.738;2023-06-22T05:44:47;8.40;;;6.50;;
3845;SDS011;1938;50.812;7.738;2023-06-22T05:47:13;6.93;;;5.43;;
3845;SDS011;1938;50.812;7.738;2023-06-22T05:49:38;9.10;;;5.70;;
3845;SDS011;1938;50.812;7.738;2023-06-22T05:52:04;8.53;;;6.27;;
3845;SDS011;1938;50.812;7.738;2023-06-22T05:54:30;13.40;;;6.07;;
3845;SDS011;1938;50.812;7.738;2023-06-22T05:56:55;8.63;;;5.60;;
3845;SDS011;1938;50.812;7.738;2023-06-22T05:59:21;8.20;;;6.47;;
3845;SDS011;1938;50.812;7.738;2023-06-22T06:01:47;8.50;;;6.30;;
3845;SDS011;1938;50.812;7.738;2023-06-22T06:04:18;10.07;;;6.63;;
3845;SDS011;1938;50.812;7.738;2023-06-22T06:06:43;8.20;;;6.13;;
3845;SDS011;1938;50.812;7.738;2023-06-22T06:09:09;8.10;;;6.03;;
3845;SDS011;1938;50.812;7.738;2023-06-22T06:11:36;8.73;;;5.73;;
3845;SDS011;1938;50.812;7.738;2023-06-22T06:14:02;9.47;;;5.87;;
3845;SDS011;1938;50.812;7.738;2023-06-22T06:16:27;12.63;;;6.37;;
3845;SDS011;1938;50.812;7.738;2023-06-22T06:18:53;7.20;;;5.43;;
3845;SDS011;1938;50.812;7.738;2023-06-22T06:21:20;9.27;;;5.57;;
3845;SDS011;1938;50.812;7.738;2023-06-22T06:23:46;8.43;;;5.87;;
3845;SDS011;1938;50.812;7.738;2023-06-22T06:26:12;7.90;;;5.27;;
3845;SDS011;1938;50.812;7.738;2023-06-22T06:28:40;8.10;;;6.63;;
3845;SDS011;1938;50.812;7.738;2023-06-22T06:31:06;8.40;;;5.80;;
3845;SDS011;1938;50.812;7.738;2023-06-22T06:33:32;10.23;;;6.73;;
3845;SDS011;1938;50.812;7.738;2023-06-22T06:35:57;10.70;;;6.63;;
3845;SDS011;1938;50.812;7.738;2023-06-22T06:38:26;8.40;;;7.33;;
3845;SDS011;1938;50.812;7.738;2023-06-22T06:40:52;10.73;;;7.33;;
3845;SDS011;1938;50.812;7.738;2023-06-22T06:43:17;16.80;;;6.57;;
3845;SDS011;1938;50.812;7.738;2023-06-22T06:45:43;12.00;;;7.20;;
3845;SDS011;1938;50.812;7.738;2023-06-22T06:48:10;9.13;;;6.90;;
3845;SDS011;1938;50.812;7.738;2023-06-22T06:50:35;11.73;;;7.47;;
3845;SDS011;1938;50.812;7.738;2023-06-22T06:53:01;10.77;;;8.10;;
3845;SDS011;1938;50.812;7.738;2023-06-22T06:55:27;13.03;;;8.10;;
3845;SDS011;1938;50.812;7.738;2023-06-22T06:57:53;9.80;;;8.23;;
3845;SDS011;1938;50.812;7.738;2023-06-22T07:00:19;12.20;;;8.30;;
3845;SDS011;1938;50.812;7.738;2023-06-22T07:02:45;11.13;;;8.00;;
3845;SDS011;1938;50.812;7.738;2023-06-22T07:05:13;10.93;;;8.70;;
3845;SDS011;1938;50.812;7.738;2023-06-22T07:07:38;11.10;;;8.60;;
3845;SDS011;1938;50.812;7.738;2023-06-22T07:10:07;12.13;;;8.00;;
3845;SDS011;1938;50.812;7.738;2023-06-22T07:12:33;11.00;;;8.17;;
3845;SDS011;1938;50.812;7.738;2023-06-22T07:15:02;11.97;;;8.77;;
3845;SDS011;1938;50.812;7.738;2023-06-22T07:17:29;13.43;;;8.63;;
3845;SDS011;1938;50.812;7.738;2023-06-22T07:19:54;15.57;;;8.73;;
3845;SDS011;1938;50.812;7.738;2023-06-22T07:22:21;13.03;;;9.07;;
3845;SDS011;1938;50.812;7.738;2023-06-22T07:24:46;13.17;;;8.43;;
3845;SDS011;1938;50.812;7.738;2023-06-22T07:27:12;14.03;;;8.40;;
3845;SDS011;1938;50.812;7.738;2023-06-22T07:29:37;10.10;;;7.17;;
3845;SDS011;1938;50.812;7.738;2023-06-22T07:32:05;10.67;;;7.70;;
3845;SDS011;1938;50.812;7.738;2023-06-22T07:34:31;17.50;;;7.67;;
3845;SDS011;1938;50.812;7.738;2023-06-22T07:36:57;11.20;;;7.80;;
3845;SDS011;1938;50.812;7.738;2023-06-22T07:39:22;10.67;;;8.37;;
3845;SDS011;1938;50.812;7.738;2023-06-22T07:41:50;14.20;;;8.03;;
3845;SDS011;1938;50.812;7.738;2023-06-22T07:44:16;12.67;;;8.17;;
3845;SDS011;1938;50.812;7.738;2023-06-22T07:46:41;14.60;;;9.00;;
3845;SDS011;1938;50.812;7.738;2023-06-22T07:49:07;13.67;;;8.40;;
3845;SDS011;1938;50.812;7.738;2023-06-22T07:51:33;20.30;;;8.40;;
3845;SDS011;1938;50.812;7.738;2023-06-22T07:53:59;12.07;;;8.07;;
3845;SDS011;1938;50.812;7.738;2023-06-22T07:56:24;12.97;;;9.00;;
3845;SDS011;1938;50.812;7.738;2023-06-22T07:58:50;10.83;;;7.67;;
3845;SDS011;1938;50.812;7.738;2023-06-22T08:01:17;14.17;;;8.13;;
3845;SDS011;1938;50.812;7.738;2023-06-22T08:03:44;11.03;;;8.50;;
3845;SDS011;1938;50.812;7.738;2023-06-22T08:06:10;13.87;;;9.53;;
3845;SDS011;1938;50.812;7.738;2023-06-22T08:08:36;12.97;;;8.40;;
3845;SDS011;1938;50.812;7.738;2023-06-22T08:11:01;12.67;;;8.57;;
3845;SDS011;1938;50.812;7.738;2023-06-22T08:13:27;12.17;;;8.27;;
3845;SDS011;1938;50.812;7.738;2023-06-22T08:15:52;11.70;;;7.50;;
3845;SDS011;1938;50.812;7.738;2023-06-22T08:18:18;11.27;;;8.60;;
3845;SDS011;1938;50.812;7.738;2023-06-22T08:20:44;10.23;;;8.00;;
3845;SDS011;1938;50.812;7.738;2023-06-22T08:23:10;12.70;;;8.33;;
3845;SDS011;1938;50.812;7.738;2023-06-22T08:25:35;13.50;;;8.63;;
3845;SDS011;1938;50.812;7.738;2023-06-22T08:28:01;14.43;;;9.20;;
3845;SDS011;1938;50.812;7.738;2023-06-22T08:30:27;16.80;;;8.13;;
3845;SDS011;1938;50.812;7.738;2023-06-22T08:32:54;11.50;;;8.37;;
3845;SDS011;1938;50.812;7.738;2023-06-22T08:35:20;13.07;;;8.33;;
3845;SDS011;1938;50.812;7.738;2023-06-22T08:37:47;12.33;;;8.23;;
3845;SDS011;1938;50.812;7.738;2023-06-22T08:40:17;11.47;;;8.03;;
3845;SDS011;1938;50.812;7.738;2023-06-22T08:42:44;9.77;;;7.10;;
3845;SDS011;1938;50.812;7.738;2023-06-22T08:45:10;9.93;;;7.37;;
3845;SDS011;1938;50.812;7.738;2023-06-22T08:47:36;9.30;;;7.60;;
3845;SDS011;1938;50.812;7.738;2023-06-22T08:50:02;10.07;;;7.57;;
3845;SDS011;1938;50.812;7.738;2023-06-22T08:52:30;11.77;;;7.10;;
3845;SDS011;1938;50.812;7.738;2023-06-22T08:54:56;11.37;;;7.63;;
3845;SDS011;1938;50.812;7.738;2023-06-22T08:57:23;10.23;;;8.03;;
3845;SDS011;1938;50.812;7.738;2023-06-22T08:59:48;12.90;;;8.40;;
3845;SDS011;1938;50.812;7.738;2023-06-22T09:02:17;9.87;;;8.30;;
3845;SDS011;1938;50.812;7.738;2023-06-22T09:04:42;12.27;;;7.60;;
3845;SDS011;1938;50.812;7.738;2023-06-22T09:07:08;13.43;;;8.57;;
3845;SDS011;1938;50.812;7.738;2023-06-22T09:09:33;14.27;;;8.50;;
3845;SDS011;1938;50.812;7.738;2023-06-22T09:11:59;13.27;;;8.50;;
3845;SDS011;1938;50.812;7.738;2023-06-22T09:14:24;14.67;;;8.70;;
3845;SDS011;1938;50.812;7.738;2023-06-22T09:16:51;11.80;;;8.93;;
3845;SDS011;1938;50.812;7.738;2023-06-22T09:19:16;11.73;;;8.93;;
3845;SDS011;1938;50.812;7.738;2023-06-22T09:21:42;10.23;;;8.10;;
3845;SDS011;1938;50.812;7.738;2023-06-22T09:24:07;17.23;;;8.30;;
3845;SDS011;1938;50.812;7.738;2023-06-22T09:26:33;11.33;;;8.23;;
3845;SDS011;1938;50.812;7.738;2023-06-22T09:28:58;11.97;;;8.83;;
3845;SDS011;1938;50.812;7.738;2023-06-22T09:31:24;10.60;;;8.40;;
3845;SDS011;1938;50.812;7.738;2023-06-22T09:33:53;10.23;;;8.37;;
3845;SDS011;1938;50.812;7.738;2023-06-22T09:36:19;12.27;;;9.10;;
3845;SDS011;1938;50.812;7.738;2023-06-22T09:38:48;11.70;;;8.20;;
3845;SDS011;1938;50.812;7.738;2023-06-22T09:41:20;12.30;;;8.63;;
3845;SDS011;1938;50.812;7.738;2023-06-22T09:43:45;13.20;;;9.00;;
3845;SDS011;1938;50.812;7.738;2023-06-22T09:46:11;11.10;;;8.20;;
3845;SDS011;1938;50.812;7.738;2023-06-22T09:48:36;13.93;;;8.93;;
3845;SDS011;1938;50.812;7.738;2023-06-22T09:51:02;11.73;;;8.30;;
3845;SDS011;1938;50.812;7.738;2023-06-22T09:53:27;13.47;;;8.43;;
3845;SDS011;1938;50.812;7.738;2023-06-22T09:55:53;11.43;;;8.17;;
3845;SDS011;1938;50.812;7.738;2023-06-22T09:58:19;11.83;;;7.83;;
3845;SDS011;1938;50.812;7.738;2023-06-22T10:00:44;10.30;;;7.53;;
3845;SDS011;1938;50.812;7.738;2023-06-22T10:03:10;10.93;;;7.77;;
3845;SDS011;1938;50.812;7.738;2023-06-22T10:05:35;9.77;;;7.30;;
3845;SDS011;1938;50.812;7.738;2023-06-22T10:08:01;11.87;;;7.80;;
3845;SDS011;1938;50.812;7.738;2023-06-22T10:10:26;10.90;;;8.90;;
3845;SDS011;1938;50.812;7.738;2023-06-22T10:12:55;12.23;;;7.70;;
3845;SDS011;1938;50.812;7.738;2023-06-22T10:15:22;11.30;;;7.93;;
3845;SDS011;1938;50.812;7.738;2023-06-22T10:17:48;14.40;;;8.30;;
3845;SDS011;1938;50.812;7.738;2023-06-22T10:20:14;11.13;;;7.70;;
3845;SDS011;1938;50.812;7.738;2023-06-22T10:22:40;11.70;;;8.40;;
3845;SDS011;1938;50.812;7.738;2023-06-22T10:25:08;10.93;;;8.00;;
3845;SDS011;1938;50.812;7.738;2023-06-22T10:27:35;10.27;;;7.40;;
3845;SDS011;1938;50.812;7.738;2023-06-22T10:30:00;10.67;;;7.80;;
3845;SDS011;1938;50.812;7.738;2023-06-22T10:32:26;10.93;;;7.80;;
3845;SDS011;1938;50.812;7.738;2023-06-22T10:34:53;10.43;;;7.63;;
3845;SDS011;1938;50.812;7.738;2023-06-22T10:37:19;12.43;;;7.67;;
3845;SDS011;1938;50.812;7.738;2023-06-22T10:39:44;13.20;;;8.20;;
3845;SDS011;1938;50.812;7.738;2023-06-22T10:42:10;11.70;;;7.80;;
3845;SDS011;1938;50.812;7.738;2023-06-22T10:44:37;18.13;;;8.63;;
3845;SDS011;1938;50.812;7.738;2023-06-22T10:47:03;13.00;;;8.57;;
3845;SDS011;1938;50.812;7.738;2023-06-22T10:49:29;12.60;;;8.00;;
3845;SDS011;1938;50.812;7.738;2023-06-22T10:51:55;15.33;;;7.73;;
3845;SDS011;1938;50.812;7.738;2023-06-22T10:54:20;11.87;;;9.10;;
3845;SDS011;1938;50.812;7.738;2023-06-22T10:56:46;10.70;;;7.57;;
3845;SDS011;1938;50.812;7.738;2023-06-22T10:59:11;10.43;;;8.07;;
3845;SDS011;1938;50.812;7.738;2023-06-22T11:01:38;11.20;;;8.00;;
3845;SDS011;1938;50.812;7.738;2023-06-22T11:04:03;11.00;;;7.77;;
3845;SDS011;1938;50.812;7.738;2023-06-22T11:06:29;9.80;;;7.87;;
3845;SDS011;1938;50.812;7.738;2023-06-22T11:08:55;12.53;;;7.97;;
3845;SDS011;1938;50.812;7.738;2023-06-22T11:11:20;12.23;;;8.70;;
3845;SDS011;1938;50.812;7.738;2023-06-22T11:13:46;17.60;;;9.57;;
3845;SDS011;1938;50.812;7.738;2023-06-22T11:16:11;14.70;;;9.27;;
3845;SDS011;1938;50.812;7.738;2023-06-22T11:18:37;11.73;;;8.50;;
3845;SDS011;1938;50.812;7.738;2023-06-22T11:21:03;11.70;;;8.03;;
3845;SDS011;1938;50.812;7.738;2023-06-22T11:23:28;10.47;;;8.40;;
3845;SDS011;1938;50.812;7.738;2023-06-22T11:25:54;12.30;;;8.43;;
3845;SDS011;1938;50.812;7.738;2023-06-22T11:28:20;13.40;;;8.80;;
3845;SDS011;1938;50.812;7.738;2023-06-22T11:30:46;16.93;;;8.73;;
3845;SDS011;1938;50.812;7.738;2023-06-22T11:33:12;11.63;;;8.73;;
3845;SDS011;1938;50.812;7.738;2023-06-22T11:35:37;11.97;;;8.63;;
3845;SDS011;1938;50.812;7.738;2023-06-22T11:38:03;9.17;;;7.83;;
3845;SDS011;1938;50.812;7.738;2023-06-22T11:40:29;13.53;;;9.07;;
3845;SDS011;1938;50.812;7.738;2023-06-22T11:42:55;14.00;;;8.90;;
3845;SDS011;1938;50.812;7.738;2023-06-22T11:45:20;10.27;;;8.17;;
3845;SDS011;1938;50.812;7.738;2023-06-22T11:47:46;13.30;;;9.37;;
3845;SDS011;1938;50.812;7.738;2023-06-22T11:50:12;13.00;;;9.70;;
3845;SDS011;1938;50.812;7.738;2023-06-22T11:52:37;14.90;;;9.57;;
3845;SDS011;1938;50.812;7.738;2023-06-22T11:55:04;17.03;;;9.87;;
3845;SDS011;1938;50.812;7.738;2023-06-22T11:57:35;15.00;;;9.00;;
3845;SDS011;1938;50.812;7.738;2023-06-22T12:00:02;26.17;;;11.60;;
3845;SDS011;1938;50.812;7.738;2023-06-22T12:02:40;11.93;;;2.07;;
3845;SDS011;1938;50.812;7.738;2023-06-22T12:05:06;64.47;;;5.70;;
3845;SDS011;1938;50.812;7.738;2023-06-22T12:07:33;8.13;;;3.20;;
3845;SDS011;1938;50.812;7.738;2023-06-22T12:09:58;8.87;;;4.07;;
3845;SDS011;1938;50.812;7.738;2023-06-22T12:12:24;9.77;;;4.87;;
3845;SDS011;1938;50.812;7.738;2023-06-22T12:14:49;10.67;;;5.33;;
3845;SDS011;1938;50.812;7.738;2023-06-22T12:17:15;9.70;;;5.07;;
3845;SDS011;1938;50.812;7.738;2023-06-22T12:19:40;14.37;;;5.40;;
3845;SDS011;1938;50.812;7.738;2023-06-22T12:22:06;8.47;;;4.77;;
3845;SDS011;1938;50.812;7.738;2023-06-22T12:24:32;10.00;;;5.80;;
3845;SDS011;1938;50.812;7.738;2023-06-22T12:26:58;9.77;;;4.90;;
3845;SDS011;1938;50.812;7.738;2023-06-22T12:29:23;8.30;;;4.40;;
3845;SDS011;1938;50.812;7.738;2023-06-22T12:31:49;12.40;;;4.60;;
3845;SDS011;1938;50.812;7.738;2023-06-22T12:34:14;13.83;;;5.20;;
3845;SDS011;1938;50.812;7.738;2023-06-22T12:36:40;11.47;;;5.40;;
3845;SDS011;1938;50.812;7.738;2023-06-22T12:39:06;10.47;;;6.07;;
3845;SDS011;1938;50.812;7.738;2023-06-22T12:41:31;20.13;;;7.80;;
3845;SDS011;1938;50.812;7.738;2023-06-22T12:43:57;14.10;;;8.13;;
3845;SDS011;1938;50.812;7.738;2023-06-22T12:46:22;13.37;;;7.80;;
3845;SDS011;1938;50.812;7.738;2023-06-22T12:48:48;12.40;;;8.27;;
3845;SDS011;1938;50.812;7.738;2023-06-22T12:51:19;19.40;;;7.73;;
3845;SDS011;1938;50.812;7.738;2023-06-22T12:53:46;12.37;;;7.90;;
3845;SDS011;1938;50.812;7.738;2023-06-22T12:56:11;19.93;;;9.30;;
3845;SDS011;1938;50.812;7.738;2023-06-22T12:58:37;17.10;;;9.67;;
3845;SDS011;1938;50.812;7.738;2023-06-22T13:01:02;14.40;;;9.40;;
3845;SDS011;1938;50.812;7.738;2023-06-22T13:03:28;14.30;;;9.27;;
3845;SDS011;1938;50.812;7.738;2023-06-22T13:05:54;13.10;;;9.80;;
3845;SDS011;1938;50.812;7.738;2023-06-22T13:08:19;15.33;;;10.60;;
3845;SDS011;1938;50.812;7.738;2023-06-22T13:10:45;15.37;;;10.30;;
3845;SDS011;1938;50.812;7.738;2023-06-22T13:13:11;14.97;;;9.80;;
3845;SDS011;1938;50.812;7.738;2023-06-22T13:15:36;17.67;;;10.70;;
3845;SDS011;1938;50.812;7.738;2023-06-22T13:18:02;12.90;;;9.43;;
3845;SDS011;1938;50.812;7.738;2023-06-22T13:20:28;12.20;;;8.73;;
3845;SDS011;1938;50.812;7.738;2023-06-22T13:22:54;11.00;;;7.93;;
3845;SDS011;1938;50.812;7.738;2023-06-22T13:25:21;12.23;;;8.77;;
3845;SDS011;1938;50.812;7.738;2023-06-22T13:27:48;16.97;;;9.83;;
3845;SDS011;1938;50.812;7.738;2023-06-22T13:30:14;15.17;;;8.57;;
3845;SDS011;1938;50.812;7.738;2023-06-22T13:32:40;12.60;;;7.40;;
3845;SDS011;1938;50.812;7.738;2023-06-22T13:35:07;12.13;;;8.17;;
3845;SDS011;1938;50.812;7.738;2023-06-22T13:37:34;14.70;;;8.30;;
3845;SDS011;1938;50.812;7.738;2023-06-22T13:39:59;11.33;;;7.80;;
3845;SDS011;1938;50.812;7.738;2023-06-22T13:42:25;13.30;;;7.50;;
3845;SDS011;1938;50.812;7.738;2023-06-22T13:44:50;12.67;;;7.77;;
3845;SDS011;1938;50.812;7.738;2023-06-22T13:47:16;11.00;;;7.53;;
3845;SDS011;1938;50.812;7.738;2023-06-22T13:49:42;21.83;;;9.13;;
3845;SDS011;1938;50.812;7.738;2023-06-22T13:52:08;19.63;;;9.33;;
3845;SDS011;1938;50.812;7.738;2023-06-22T13:54:35;13.53;;;8.27;;
3845;SDS011;1938;50.812;7.738;2023-06-22T13:57:01;11.10;;;8.50;;
3845;SDS011;1938;50.812;7.738;2023-06-22T13:59:27;11.43;;;7.77;;
3845;SDS011;1938;50.812;7.738;2023-06-22T14:01:53;13.13;;;7.90;;
3845;SDS011;1938;50.812;7.738;2023-06-22T14:04:19;11.23;;;7.03;;
3845;SDS011;1938;50.812;7.738;2023-06-22T14:06:44;11.00;;;7.43;;
3845;SDS011;1938;50.812;7.738;2023-06-22T14:09:10;12.13;;;7.00;;
3845;SDS011;1938;50.812;7.738;2023-06-22T14:11:35;8.90;;;6.00;;
3845;SDS011;1938;50.812;7.738;2023-06-22T14:14:01;10.23;;;6.53;;
3845;SDS011;1938;50.812;7.738;2023-06-22T14:16:26;13.83;;;5.83;;
3845;SDS011;1938;50.812;7.738;2023-06-22T14:18:52;10.37;;;6.23;;
3845;SDS011;1938;50.812;7.738;2023-06-22T14:21:17;9.27;;;5.97;;
3845;SDS011;1938;50.812;7.738;2023-06-22T14:23:43;9.73;;;6.40;;
3845;SDS011;1938;50.812;7.738;2023-06-22T14:26:14;9.97;;;5.80;;
3845;SDS011;1938;50.812;7.738;2023-06-22T14:28:43;9.57;;;6.00;;
3845;SDS011;1938;50.812;7.738;2023-06-22T14:31:12;18.20;;;6.93;;
3845;SDS011;1938;50.812;7.738;2023-06-22T14:33:39;10.90;;;6.57;;
3845;SDS011;1938;50.812;7.738;2023-06-22T14:36:04;11.00;;;6.90;;
3845;SDS011;1938;50.812;7.738;2023-06-22T14:38:30;11.00;;;6.13;;
3845;SDS011;1938;50.812;7.738;2023-06-22T14:40:55;15.50;;;6.50;;
3845;SDS011;1938;50.812;7.738;2023-06-22T14:43:21;9.80;;;6.57;;
3845;SDS011;1938;50.812;7.738;2023-06-22T14:45:47;10.13;;;6.90;;
3845;SDS011;1938;50.812;7.738;2023-06-22T14:48:12;10.47;;;7.73;;
3845;SDS011;1938;50.812;7.738;2023-06-22T14:50:38;13.40;;;7.33;;
3845;SDS011;1938;50.812;7.738;2023-06-22T14:53:03;16.83;;;8.60;;
3845;SDS011;1938;50.812;7.738;2023-06-22T14:55:29;12.10;;;8.80;;
3845;SDS011;1938;50.812;7.738;2023-06-22T14:57:54;13.27;;;7.43;;
3845;SDS011;1938;50.812;7.738;2023-06-22T15:00:21;13.50;;;6.90;;